Ocean Park, Washington
Current Conditions -  °F | °C
As of 1:55 AM on Tuesday 27 Jan 2015 (Local Time) from KAST Reporting Station
Overcast Overcast  
Wind Chill: 47°   Ceiling: 2400
Heat Index: 47°   Visibility: 7mi
Dew Point: 46°   Wind: 0mph
Humidity: 97%   Direction: NA
Pressure: 30"   Gusts: NA
Location:  46.49°N, 124.05°W
Report Text: KAST 270955Z AUTO 00000KT 7SM OVC024 08/08 A3000 RMK AO2 SLP159 T00830078
Loading
Personal Weather Stations






























Interactive Weather Map New forecast layout! Learn more

10-Day Weather Forecast

Advertisements
Track Severe Weather on mobile